Time;durP1;ratioP1;P1;durP2;ratioP2;P2;SDS_P1;SDS_P2;PMS_P1;PMS_P2;Temp;Humidity;BMP_temperature;BMP_pressure;BME280_temperature;BME280_humidity;BME280_pressure;Samples;Min_cycle;Max_cycle;Signal;HPM_P1;HPM_P2
2024/04/15 00:00:49;;;;;;;10.70;4.00;;;;;;;8.20;100.00;101386.91;10856536;26;20017;-68
2024/04/15 00:05:47;;;;;;;13.13;3.80;;;;;;;8.19;100.00;101396.19;10856277;26;20073;-69
2024/04/15 00:10:45;;;;;;;15.10;3.83;;;;;;;8.26;100.00;101395.03;10855298;26;20587;-69
2024/04/15 00:15:42;;;;;;;12.10;4.00;;;;;;;8.27;100.00;101383.03;10831598;26;20411;-69
2024/04/15 00:20:40;;;;;;;11.15;4.00;;;;;;;8.16;100.00;101376.88;10849585;26;20618;-69
2024/04/15 00:25:37;;;;;;;16.45;5.00;;;;;;;8.20;100.00;101364.31;10846834;26;20023;-71
2024/04/15 00:30:34;;;;;;;8.57;4.15;;;;;;;8.21;100.00;101355.84;10851872;26;20012;-70
2024/04/15 00:35:31;;;;;;;18.02;4.47;;;;;;;8.25;100.00;101349.81;10854476;26;20017;-70
2024/04/15 00:40:30;;;;;;;18.08;4.22;;;;;;;8.11;100.00;101347.75;10861487;26;20001;-69
2024/04/15 00:45:31;;;;;;;9.80;4.00;;;;;;;8.20;100.00;101348.75;10848009;26;20040;-70
2024/04/15 00:50:31;;;;;;;10.90;4.32;;;;;;;8.23;100.00;101326.38;10851384;26;20004;-70
2024/04/15 00:55:30;;;;;;;20.83;4.10;;;;;;;8.16;100.00;101325.91;10855570;26;20019;-69
2024/04/15 01:00:27;;;;;;;15.55;5.10;;;;;;;8.10;100.00;101316.19;10877686;26;20005;-69
2024/04/15 01:05:24;;;;;;;11.05;4.72;;;;;;;8.20;100.00;101305.19;10851992;26;20012;-70
2024/04/15 01:10:21;;;;;;;17.17;4.15;;;;;;;8.18;100.00;101296.47;10874905;26;20001;-70
2024/04/15 01:15:19;;;;;;;14.57;4.65;;;;;;;8.17;100.00;101278.53;10865542;26;20508;-69
2024/04/15 01:20:16;;;;;;;11.55;4.40;;;;;;;8.09;100.00;101281.84;10856914;26;20008;-69
2024/04/15 01:25:13;;;;;;;9.65;3.50;;;;;;;7.95;100.00;101275.47;10830491;26;20009;-70
2024/04/15 01:30:11;;;;;;;12.55;3.95;;;;;;;7.85;100.00;101264.69;10862384;26;20032;-70
2024/04/15 01:35:08;;;;;;;16.00;4.88;;;;;;;7.69;100.00;101256.63;10853139;26;20077;-70
2024/04/15 01:40:06;;;;;;;16.55;4.68;;;;;;;7.51;100.00;101255.41;10849038;26;20002;-70
2024/04/15 01:45:03;;;;;;;7.78;4.22;;;;;;;7.38;100.00;101240.56;10850734;26;20008;-68
2024/04/15 01:50:00;;;;;;;9.60;4.70;;;;;;;7.29;100.00;101236.81;10855441;26;20457;-68
2024/04/15 01:54:57;;;;;;;13.40;5.68;;;;;;;7.09;100.00;101236.94;10783592;26;20012;-68
2024/04/15 01:59:55;;;;;;;11.07;5.45;;;;;;;6.91;100.00;101225.59;10836211;26;20012;-71
2024/04/15 02:04:52;;;;;;;12.25;5.30;;;;;;;6.76;100.00;101217.56;10778711;26;20031;-68
2024/04/15 02:09:49;;;;;;;15.93;6.45;;;;;;;6.61;100.00;101214.91;10780986;26;20006;-68
2024/04/15 02:14:46;;;;;;;15.30;6.28;;;;;;;6.50;100.00;101231.25;10861067;26;20015;-69
2024/04/15 02:19:43;;;;;;;11.60;5.40;;;;;;;6.37;100.00;101242.72;10859754;26;20110;-68
2024/04/15 02:24:40;;;;;;;8.32;5.65;;;;;;;6.36;100.00;101230.22;10792784;26;20013;-69
2024/04/15 02:29:46;;;;;;;9.82;5.70;;;;;;;6.48;100.00;101228.00;10849611;26;20008;-68
2024/04/15 02:34:43;;;;;;;12.50;5.80;;;;;;;6.58;100.00;101227.13;10781955;26;20030;-70
2024/04/15 02:39:41;;;;;;;10.43;5.72;;;;;;;6.59;100.00;101222.50;10879210;26;20016;-70
2024/04/15 02:44:38;;;;;;;12.13;6.60;;;;;;;6.71;100.00;101214.88;10862030;26;20012;-70
2024/04/15 02:49:35;;;;;;;18.05;6.57;;;;;;;6.67;100.00;101211.09;10861395;26;20456;-71
2024/04/15 02:54:32;;;;;;;11.95;6.68;;;;;;;6.67;100.00;101197.50;10847940;26;20042;-70
2024/04/15 02:59:29;;;;;;;14.63;5.32;;;;;;;6.66;100.00;101204.00;10840191;26;20005;-70
2024/04/15 03:04:27;;;;;;;9.68;5.63;;;;;;;6.61;100.00;101187.72;10853475;26;20001;-70
2024/04/15 03:09:25;;;;;;;12.57;5.72;;;;;;;6.59;100.00;101173.59;10856198;26;20017;-71
2024/04/15 03:14:22;;;;;;;15.77;7.03;;;;;;;6.46;100.00;101170.41;10845840;26;20041;-70
2024/04/15 03:19:19;;;;;;;12.20;5.28;;;;;;;6.51;100.00;101164.94;10819459;26;20087;-70
2024/04/15 03:24:16;;;;;;;15.20;6.38;;;;;;;6.48;100.00;101160.09;10838411;26;20017;-70
2024/04/15 03:29:13;;;;;;;12.82;5.63;;;;;;;6.35;100.00;101155.25;10827214;26;20084;-70
2024/04/15 03:34:11;;;;;;;13.40;6.05;;;;;;;6.18;100.00;101149.38;10830976;26;20010;-75
2024/04/15 03:39:08;;;;;;;16.40;5.97;;;;;;;6.15;100.00;101148.03;10779506;26;20010;-76
2024/04/15 03:44:05;;;;;;;12.88;6.43;;;;;;;6.08;100.00;101142.88;10787411;26;20794;-76
2024/04/15 03:49:02;;;;;;;13.85;6.30;;;;;;;5.92;100.00;101138.56;10773391;26;20020;-74
2024/04/15 03:54:00;;;;;;;13.18;7.00;;;;;;;5.81;100.00;101126.91;10761355;26;20021;-75
2024/04/15 03:58:57;;;;;;;11.60;6.68;;;;;;;5.74;100.00;101114.75;10813065;26;20808;-74
2024/04/15 04:03:54;;;;;;;13.93;6.80;;;;;;;5.79;100.00;101115.53;10843901;26;20101;-77
2024/04/15 04:08:51;;;;;;;11.40;7.05;;;;;;;5.65;100.00;101107.16;10837182;26;20017;-75
2024/04/15 04:13:48;;;;;;;14.75;6.07;;;;;;;5.59;100.00;101108.28;10835367;26;20416;-73
2024/04/15 04:18:47;;;;;;;12.32;6.88;;;;;;;5.63;100.00;101092.25;10842561;26;20014;-74
2024/04/15 04:23:44;;;;;;;9.95;6.20;;;;;;;5.63;100.00;101084.91;10834185;26;20566;-75
2024/04/15 04:28:41;;;;;;;11.52;6.38;;;;;;;5.64;100.00;101089.25;10850015;26;20477;-74
2024/04/15 04:33:39;;;;;;;13.38;6.75;;;;;;;5.62;100.00;101077.88;10802368;26;20017;-75
2024/04/15 04:38:36;;;;;;;12.85;6.90;;;;;;;5.68;100.00;101063.19;10783597;26;20401;-74
2024/04/15 04:43:33;;;;;;;10.98;6.03;;;;;;;5.68;100.00;101048.81;10785707;26;20056;-72
2024/04/15 04:48:30;;;;;;;11.38;7.10;;;;;;;5.70;100.00;101061.00;10780219;26;20083;-73
2024/04/15 04:53:27;;;;;;;16.63;7.20;;;;;;;5.79;100.00;101052.31;10784085;26;20006;-72
2024/04/15 04:58:24;;;;;;;16.00;6.70;;;;;;;5.84;100.00;101044.13;10825636;26;20020;-73
2024/04/15 05:03:21;;;;;;;19.05;7.72;;;;;;;5.95;100.00;101018.63;10793010;26;20076;-74
2024/04/15 05:08:18;;;;;;;15.10;7.10;;;;;;;6.04;100.00;101011.50;10778663;26;20018;-74
2024/04/15 05:13:16;;;;;;;18.17;7.50;;;;;;;6.02;100.00;101024.53;10798793;26;20015;-75
2024/04/15 05:18:13;;;;;;;16.60;7.55;;;;;;;6.06;100.00;101025.63;10786376;26;20002;-75
2024/04/15 05:23:10;;;;;;;14.35;7.32;;;;;;;6.14;100.00;101026.13;10796842;26;20017;-75
2024/04/15 05:28:08;;;;;;;14.95;7.60;;;;;;;6.18;100.00;101024.47;10777650;26;20727;-73
2024/04/15 05:33:05;;;;;;;15.05;7.00;;;;;;;6.25;100.00;101017.63;10791599;26;22393;-73
2024/04/15 05:38:02;;;;;;;10.75;7.13;;;;;;;6.47;100.00;101009.03;10792605;26;20010;-73
2024/04/15 05:42:59;;;;;;;12.85;7.10;;;;;;;6.83;100.00;101000.63;10778637;26;20019;-73
2024/04/15 05:47:56;;;;;;;15.02;7.80;;;;;;;7.06;100.00;100993.59;10788182;26;20012;-73
2024/04/15 05:52:54;;;;;;;14.48;7.97;;;;;;;7.16;100.00;100987.25;10792463;26;20012;-72
2024/04/15 05:57:51;;;;;;;13.68;7.40;;;;;;;7.31;100.00;100978.94;10806163;26;20350;-72
2024/04/15 06:02:48;;;;;;;11.60;7.10;;;;;;;7.29;100.00;100970.25;10850598;26;20013;-73
2024/04/15 06:07:45;;;;;;;15.07;7.05;;;;;;;7.32;100.00;100964.22;10849553;26;20001;-73
2024/04/15 06:12:42;;;;;;;15.77;6.60;;;;;;;7.30;100.00;100944.66;10867384;26;20398;-72
2024/04/15 06:17:40;;;;;;;13.80;7.00;;;;;;;7.35;100.00;100933.72;10846368;26;20086;-73
2024/04/15 06:22:37;;;;;;;11.38;6.82;;;;;;;7.47;100.00;100918.88;10844511;26;20024;-72
2024/04/15 06:27:34;;;;;;;12.18;6.75;;;;;;;7.73;100.00;100901.13;10847808;26;20001;-72
2024/04/15 06:32:31;;;;;;;21.05;7.30;;;;;;;7.85;100.00;100888.97;10845116;26;20104;-72
2024/04/15 06:37:29;;;;;;;17.67;7.22;;;;;;;8.00;100.00;100880.56;10836894;26;20009;-74
2024/04/15 06:42:26;;;;;;;11.88;7.18;;;;;;;8.13;100.00;100874.38;10840169;26;20020;-73
2024/04/15 06:47:23;;;;;;;16.92;8.57;;;;;;;8.21;100.00;100867.44;10844059;26;20090;-73
2024/04/15 06:52:20;;;;;;;10.63;6.45;;;;;;;8.35;100.00;100853.84;10844649;26;20009;-73
2024/04/15 06:57:21;;;;;;;17.55;7.05;;;;;;;8.53;100.00;100839.38;10838939;26;20001;-74
2024/04/15 07:02:20;;;;;;;18.10;6.95;;;;;;;8.70;100.00;100832.53;10850453;26;20033;-72
2024/04/15 07:07:20;;;;;;;19.52;7.55;;;;;;;8.66;100.00;100820.59;10828029;26;20023;-72
2024/04/15 07:12:17;;;;;;;14.23;6.88;;;;;;;8.52;100.00;100818.69;10839190;26;20012;-72
2024/04/15 07:17:14;;;;;;;12.88;6.75;;;;;;;8.38;100.00;100820.56;10869249;26;20091;-71
2024/04/15 07:22:12;;;;;;;13.95;7.10;;;;;;;8.25;100.00;100805.81;10866275;26;20005;-72
2024/04/15 07:27:09;;;;;;;15.05;7.30;;;;;;;8.29;100.00;100808.75;10872247;26;20348;-72
2024/04/15 07:32:06;;;;;;;12.95;6.60;;;;;;;8.44;100.00;100789.41;10876286;26;20016;-72
2024/04/15 07:37:05;;;;;;;12.68;7.00;;;;;;;8.53;100.00;100778.63;10869062;26;20023;-71
2024/04/15 07:42:02;;;;;;;8.23;6.50;;;;;;;8.73;100.00;100771.97;10874321;26;20019;-71
2024/04/15 07:46:59;;;;;;;10.02;6.60;;;;;;;8.79;100.00;100762.56;10874945;26;20009;-73
2024/04/15 07:51:57;;;;;;;11.27;7.25;;;;;;;8.86;100.00;100760.22;10874452;26;20004;-71
2024/04/15 07:56:54;;;;;;;11.45;6.90;;;;;;;8.94;100.00;100756.78;10855447;26;20437;-72
2024/04/15 08:01:51;;;;;;;14.07;6.70;;;;;;;9.21;100.00;100736.00;10869665;26;20948;-72
2024/04/15 08:06:48;;;;;;;10.63;6.13;;;;;;;9.36;100.00;100735.66;10851480;26;20005;-72
2024/04/15 08:12:02;;;;;;;12.13;6.15;;;;;;;9.51;100.00;100717.28;10844645;26;20096;-73
2024/04/15 08:16:59;;;;;;;9.13;5.90;;;;;;;9.80;100.00;100706.72;10837024;26;20578;-73
2024/04/15 08:21:56;;;;;;;10.27;5.88;;;;;;;9.89;100.00;100699.38;10855498;26;20028;-72
2024/04/15 08:26:54;;;;;;;10.40;6.00;;;;;;;10.01;100.00;100667.97;10848558;26;20008;-73
2024/04/15 08:31:52;;;;;;;9.98;7.05;;;;;;;10.02;100.00;100672.28;10866808;26;20100;-75
2024/04/15 08:36:52;;;;;;;7.93;5.85;;;;;;;10.31;100.00;100655.41;10886040;26;20551;-74
2024/04/15 08:41:54;;;;;;;11.20;6.47;;;;;;;10.34;100.00;100648.47;10886566;26;19996;-73
2024/04/15 08:47:12;;;;;;;17.17;7.30;;;;;;;10.62;100.00;100638.09;10878330;26;20626;-73
2024/04/15 08:52:16;;;;;;;11.63;6.43;;;;;;;11.12;100.00;100624.72;10867723;26;20015;-73
2024/04/15 08:57:16;;;;;;;12.63;7.13;;;;;;;11.52;100.00;100610.00;10881112;26;20024;-74
2024/04/15 09:02:17;;;;;;;12.15;7.68;;;;;;;11.21;100.00;100615.69;10875478;26;20028;-73
2024/04/15 09:07:15;;;;;;;9.20;6.63;;;;;;;11.15;100.00;100606.88;10885105;26;20093;-75
2024/04/15 09:12:12;;;;;;;8.75;6.78;;;;;;;11.13;100.00;100609.13;10873073;26;20005;-73
2024/04/15 09:17:12;;;;;;;7.05;6.28;;;;;;;11.03;100.00;100604.78;10875908;26;20468;-73
2024/04/15 09:22:09;;;;;;;10.18;6.50;;;;;;;10.91;100.00;100597.25;10861513;26;20019;-74
2024/04/15 09:27:07;;;;;;;13.57;6.38;;;;;;;11.28;100.00;100596.84;10854882;26;20035;-73
2024/04/15 09:32:05;;;;;;;9.50;6.20;;;;;;;11.57;100.00;100588.72;10858896;26;20021;-73
2024/04/15 09:37:02;;;;;;;8.25;6.18;;;;;;;11.70;100.00;100583.38;10874004;26;20021;-73
2024/04/15 09:42:00;;;;;;;5.88;4.65;;;;;;;11.85;100.00;100569.09;10878681;26;20004;-75
2024/04/15 09:46:58;;;;;;;10.05;4.50;;;;;;;11.86;100.00;100565.25;10883695;26;20008;-74
2024/04/15 09:52:04;;;;;;;5.95;4.18;;;;;;;11.83;100.00;100548.66;10883957;26;20041;-74
2024/04/15 09:57:13;;;;;;;10.77;5.00;;;;;;;12.13;100.00;100519.34;10853920;26;20012;-74
2024/04/15 10:02:42;;;;;;;10.02;4.80;;;;;;;12.47;100.00;100495.53;10862876;26;20011;-73
2024/04/15 10:07:44;;;;;;;11.07;4.75;;;;;;;12.51;100.00;100474.50;10871716;26;20005;-74
2024/04/15 10:12:41;;;;;;;10.00;5.10;;;;;;;13.94;100.00;100443.56;10872469;26;20513;-74
2024/04/15 10:17:38;;;;;;;8.32;5.00;;;;;;;16.87;100.00;100429.72;10872812;26;20583;-74
2024/04/15 10:22:40;;;;;;;11.73;5.25;;;;;;;16.12;93.96;100412.50;10857184;26;20001;-75
2024/04/15 10:27:37;;;;;;;9.13;5.22;;;;;;;16.90;92.46;100406.13;10850506;26;20457;-74
2024/04/15 10:32:34;;;;;;;9.32;4.55;;;;;;;16.11;92.28;100393.59;10815666;26;20017;-75
2024/04/15 10:37:37;;;;;;;11.65;5.60;;;;;;;16.14;96.05;100393.63;10814679;26;20019;-74
2024/04/15 10:42:35;;;;;;;8.18;4.85;;;;;;;15.28;93.88;100385.44;10853411;26;20472;-73
2024/04/15 10:47:32;;;;;;;8.30;4.68;;;;;;;14.38;98.18;100366.66;10873124;26;20511;-74
2024/04/15 10:52:29;;;;;;;8.63;5.40;;;;;;;13.74;100.00;100364.84;10885990;26;20004;-74
2024/04/15 10:57:26;;;;;;;11.10;5.28;;;;;;;13.71;100.00;100355.34;10851487;26;20033;-73
2024/04/15 11:02:23;;;;;;;10.38;5.28;;;;;;;13.35;100.00;100337.00;10837803;26;20093;-74
2024/04/15 11:07:21;;;;;;;7.55;4.53;;;;;;;13.12;100.00;100328.44;10888618;26;20008;-73
2024/04/15 11:12:18;;;;;;;6.32;4.65;;;;;;;13.56;100.00;100307.44;10888156;26;20013;-74
2024/04/15 11:17:15;;;;;;;6.13;4.50;;;;;;;14.14;100.00;100290.59;10882818;26;20012;-75
2024/04/15 11:22:12;;;;;;;9.98;4.85;;;;;;;13.80;99.41;100292.00;10865245;26;20019;-74
2024/04/15 11:27:14;;;;;;;10.10;5.00;;;;;;;13.64;100.00;100289.22;10875288;26;20018;-74
2024/04/15 11:32:11;;;;;;;6.97;5.03;;;;;;;13.42;100.00;100265.84;10879170;26;20035;-73
2024/04/15 11:37:09;;;;;;;6.00;4.30;;;;;;;12.89;100.00;100259.50;10880018;26;20004;-73
2024/04/15 11:42:06;;;;;;;8.02;4.80;;;;;;;12.87;100.00;100242.56;10867038;26;20008;-74
2024/04/15 11:47:03;;;;;;;6.22;4.50;;;;;;;12.89;100.00;100221.88;10886678;26;20012;-74
2024/04/15 11:52:01;;;;;;;8.38;4.60;;;;;;;12.46;100.00;100211.50;10881575;26;20452;-74
2024/04/15 11:56:58;;;;;;;8.18;4.60;;;;;;;12.52;100.00;100201.91;10872207;26;20019;-74
2024/04/15 12:01:56;;;;;;;10.82;5.97;;;;;;;12.26;100.00;100189.34;10882954;26;20087;-74
2024/04/15 12:06:53;;;;;;;6.22;4.50;;;;;;;12.14;100.00;100172.91;10867273;26;20005;-73
2024/04/15 12:11:51;;;;;;;9.05;5.65;;;;;;;12.13;100.00;100157.59;10866852;26;20008;-72
2024/04/15 12:16:48;;;;;;;11.98;5.43;;;;;;;11.97;100.00;100141.84;10884206;26;20048;-74
2024/04/15 12:21:45;;;;;;;10.05;5.00;;;;;;;11.91;100.00;100124.03;10876689;26;20151;-74
2024/04/15 12:26:42;;;;;;;9.32;5.20;;;;;;;11.86;100.00;100126.97;10881390;26;20013;-75
2024/04/15 12:31:40;;;;;;;7.32;5.35;;;;;;;11.80;100.00;100114.63;10837894;26;20075;-74
2024/04/15 12:36:37;;;;;;;12.85;6.00;;;;;;;11.83;100.00;100094.75;10859167;26;20001;-74
2024/04/15 12:41:34;;;;;;;7.22;5.35;;;;;;;12.22;100.00;100078.78;10851580;26;20024;-77
2024/04/15 12:46:31;;;;;;;5.90;5.28;;;;;;;13.70;100.00;100062.56;10867087;26;20079;-75
2024/04/15 12:51:28;;;;;;;8.60;6.22;;;;;;;12.99;100.00;100066.94;10862899;26;20004;-73
2024/04/15 12:56:26;;;;;;;9.80;4.80;;;;;;;12.64;100.00;100051.84;10865425;26;20024;-73
2024/04/15 13:01:23;;;;;;;10.50;5.43;;;;;;;12.37;100.00;100041.63;10870576;26;20040;-74
2024/04/15 13:06:20;;;;;;;8.52;5.40;;;;;;;12.14;100.00;100038.63;10841117;26;20020;-74
2024/04/15 13:11:17;;;;;;;10.63;5.78;;;;;;;12.02;100.00;100033.13;10880629;26;20017;-74
2024/04/15 13:16:24;;;;;;;8.90;6.13;;;;;;;12.03;100.00;100010.09;10880442;26;20019;-75
2024/04/15 13:21:35;;;;;;;8.60;5.82;;;;;;;12.29;100.00;99991.31;10872614;26;20005;-74
2024/04/15 13:26:32;;;;;;;9.13;6.18;;;;;;;12.60;100.00;99978.84;10866533;26;20017;-74
2024/04/15 13:31:29;;;;;;;8.50;5.75;;;;;;;13.01;100.00;99960.34;10879024;26;20002;-74
2024/04/15 13:36:27;;;;;;;8.15;6.15;;;;;;;13.23;100.00;99946.03;10862337;26;20008;-74
2024/04/15 13:41:25;;;;;;;10.70;6.30;;;;;;;13.31;100.00;99918.78;10864732;26;20017;-75
2024/04/15 13:46:22;;;;;;;10.10;6.22;;;;;;;13.15;100.00;99925.03;10868806;26;20001;-74
2024/04/15 13:51:19;;;;;;;7.38;5.55;;;;;;;12.79;100.00;99904.94;10873648;26;20012;-74
2024/04/15 13:56:16;;;;;;;10.02;6.00;;;;;;;13.00;100.00;99890.19;10857693;26;20453;-74
2024/04/15 14:01:13;;;;;;;11.55;6.47;;;;;;;13.53;100.00;99876.94;10868002;26;20012;-75
2024/04/15 14:06:11;;;;;;;10.35;6.38;;;;;;;13.33;100.00;99862.38;10851673;26;20009;-75
2024/04/15 14:11:08;;;;;;;13.50;6.47;;;;;;;12.92;100.00;99858.22;10868590;26;20167;-74
2024/04/15 14:16:10;;;;;;;10.18;6.35;;;;;;;12.79;100.00;99841.84;10868139;26;20015;-75
2024/04/15 14:21:07;;;;;;;11.75;6.65;;;;;;;12.74;100.00;99835.81;10873493;26;20015;-74
2024/04/15 14:26:05;;;;;;;9.02;6.38;;;;;;;12.47;100.00;99832.00;10898350;26;20077;-73
2024/04/15 14:31:02;;;;;;;11.65;6.80;;;;;;;12.24;100.00;99834.53;10903291;26;20004;-73
2024/04/15 14:35:59;;;;;;;11.43;7.18;;;;;;;12.14;100.00;99827.63;10906395;26;20487;-75
2024/04/15 14:40:56;;;;;;;13.75;8.65;;;;;;;12.30;100.00;99809.28;10890139;26;20468;-74
2024/04/15 14:45:55;;;;;;;8.48;7.35;;;;;;;12.32;100.00;99793.28;10876586;26;20004;-73
2024/04/15 14:50:54;;;;;;;12.40;7.50;;;;;;;12.45;100.00;99780.25;10897854;26;20355;-73
2024/04/15 14:55:52;;;;;;;8.00;7.20;;;;;;;12.70;100.00;99769.91;10875818;26;20064;-73
2024/04/15 15:00:49;;;;;;;17.60;7.75;;;;;;;12.58;100.00;99764.53;10894030;26;20020;-74
2024/04/15 15:05:46;;;;;;;12.27;7.85;;;;;;;12.45;100.00;99752.06;10862522;26;20092;-74
2024/04/15 15:10:51;;;;;;;10.75;7.68;;;;;;;12.28;100.00;99754.00;10768440;26;20052;-75
2024/04/15 15:15:48;;;;;;;12.57;7.47;;;;;;;12.17;100.00;99741.97;10878404;26;20019;-75
2024/04/15 15:20:45;;;;;;;10.40;7.72;;;;;;;11.95;100.00;99735.94;10874188;26;20429;-75
2024/04/15 15:25:42;;;;;;;11.00;8.05;;;;;;;11.23;100.00;99726.81;10856027;26;20068;-74
2024/04/15 15:30:41;;;;;;;9.48;7.05;;;;;;;10.91;100.00;99715.75;10877391;26;20361;-75
2024/04/15 15:35:38;;;;;;;8.02;6.82;;;;;;;11.24;100.00;99712.81;10846602;26;20081;-75
2024/04/15 15:40:35;;;;;;;7.25;6.47;;;;;;;11.61;100.00;99709.16;10883202;26;20056;-74
2024/04/15 15:45:32;;;;;;;10.82;5.78;;;;;;;11.80;100.00;99696.38;10867642;26;20024;-74
2024/04/15 15:50:29;;;;;;;6.70;5.45;;;;;;;11.87;100.00;99694.97;10869108;26;20008;-74
2024/04/15 15:55:30;;;;;;;10.20;5.43;;;;;;;11.76;100.00;99684.50;10849942;26;20720;-75
2024/04/15 16:00:28;;;;;;;9.10;6.20;;;;;;;11.63;100.00;99679.44;10851511;26;20000;-74
2024/04/15 16:05:25;;;;;;;11.90;5.60;;;;;;;11.28;100.00;99696.47;10847513;26;20115;-75
2024/04/15 16:10:22;;;;;;;6.75;6.13;;;;;;;10.97;100.00;99695.19;10854937;26;20009;-75
2024/04/15 16:15:19;;;;;;;14.35;6.78;;;;;;;10.70;100.00;99686.59;10866376;26;20004;-75
2024/04/15 16:20:16;;;;;;;7.53;6.43;;;;;;;10.42;100.00;99674.75;10849225;26;20053;-76
2024/04/15 16:25:14;;;;;;;14.05;6.43;;;;;;;10.21;100.00;99647.50;10819042;26;20416;-76
2024/04/15 16:30:11;;;;;;;7.57;6.05;;;;;;;10.11;100.00;99627.72;10838355;26;20016;-75
2024/04/15 16:35:08;;;;;;;7.05;6.00;;;;;;;10.09;100.00;99612.81;10848925;26;20024;-74
2024/04/15 16:40:05;;;;;;;6.47;5.82;;;;;;;10.13;100.00;99597.34;10874289;26;20001;-74
2024/04/15 16:45:03;;;;;;;8.95;6.40;;;;;;;10.15;100.00;99589.59;10871584;26;20004;-74
2024/04/15 16:50:00;;;;;;;8.63;6.30;;;;;;;10.22;100.00;99581.63;10872136;26;20115;-74
2024/04/15 16:54:57;;;;;;;6.25;5.65;;;;;;;10.20;100.00;99569.44;10874171;26;20020;-75
2024/04/15 16:59:54;;;;;;;8.02;6.93;;;;;;;10.11;100.00;99569.56;10778281;26;20061;-75
2024/04/15 17:04:51;;;;;;;6.68;6.18;;;;;;;10.00;100.00;99557.50;10774780;26;19998;-75
2024/04/15 17:09:49;;;;;;;7.68;6.63;;;;;;;9.90;100.00;99554.09;10847682;26;20009;-76
2024/04/15 17:14:48;;;;;;;8.48;7.68;;;;;;;9.77;100.00;99563.44;10860266;26;20453;-75
2024/04/15 17:19:45;;;;;;;10.85;8.07;;;;;;;9.41;100.00;99559.50;10872783;26;20015;-75
2024/04/15 17:24:42;;;;;;;11.88;8.57;;;;;;;9.02;100.00;99536.34;10866276;26;20044;-76
2024/04/15 17:29:39;;;;;;;9.38;8.52;;;;;;;8.89;100.00;99527.34;10746761;26;20551;-75
2024/04/15 17:34:36;;;;;;;8.90;7.90;;;;;;;8.91;100.00;99525.06;10756842;26;20006;-75
2024/04/15 17:39:34;;;;;;;10.25;8.15;;;;;;;8.88;100.00;99525.72;10842855;26;20078;-75
2024/04/15 17:44:31;;;;;;;9.73;8.20;;;;;;;8.84;100.00;99522.06;10854887;26;22038;-74
2024/04/15 17:49:28;;;;;;;11.88;8.25;;;;;;;8.71;100.00;99526.69;10855653;26;20069;-74
2024/04/15 17:54:25;;;;;;;12.43;8.02;;;;;;;8.44;100.00;99517.13;10830110;26;20015;-74
2024/04/15 17:59:24;;;;;;;8.15;6.85;;;;;;;8.47;100.00;99500.13;10839919;26;20016;-74
2024/04/15 18:04:21;;;;;;;12.25;7.18;;;;;;;8.43;100.00;99493.75;10872682;26;20013;-74
2024/04/15 18:09:18;;;;;;;8.52;7.72;;;;;;;8.33;100.00;99494.13;10859025;26;20172;-74
2024/04/15 18:14:16;;;;;;;10.32;8.02;;;;;;;8.38;100.00;99492.00;10875066;26;20115;-74
2024/04/15 18:19:13;;;;;;;13.80;7.47;;;;;;;8.44;100.00;99489.91;10884817;26;20807;-74
2024/04/15 18:24:11;;;;;;;8.30;7.50;;;;;;;8.46;100.00;99484.91;10861155;26;20381;-74
2024/04/15 18:29:08;;;;;;;7.95;7.15;;;;;;;8.33;100.00;99483.22;10837478;26;20082;-74
2024/04/15 18:34:05;;;;;;;11.98;8.43;;;;;;;8.17;100.00;99469.44;10853324;26;20489;-73
2024/04/15 18:39:02;;;;;;;13.13;7.90;;;;;;;8.04;100.00;99482.16;10838752;26;20012;-73
2024/04/15 18:43:59;;;;;;;11.10;7.85;;;;;;;7.88;100.00;99472.97;10834971;26;20535;-73
2024/04/15 18:48:56;;;;;;;7.88;6.93;;;;;;;7.64;100.00;99479.84;10849615;26;20411;-73
2024/04/15 18:53:54;;;;;;;9.35;4.20;;;;;;;6.89;100.00;99529.19;10820675;26;20058;-75
2024/04/15 18:58:51;;;;;;;4.70;4.30;;;;;;;6.06;100.00;99553.75;10771687;26;20069;-75
2024/04/15 19:03:49;;;;;;;3.83;3.42;;;;;;;5.76;100.00;99560.81;10831432;26;20020;-75
2024/04/15 19:08:46;;;;;;;3.67;3.38;;;;;;;5.59;100.00;99540.66;10858583;26;20009;-76
2024/04/15 19:13:43;;;;;;;3.20;2.65;;;;;;;5.48;100.00;99561.03;10855177;26;20001;-76
2024/04/15 19:18:40;;;;;;;3.35;3.05;;;;;;;5.25;100.00;99574.63;10838836;26;20027;-75
2024/04/15 19:23:37;;;;;;;3.40;3.10;;;;;;;4.96;100.00;99577.75;10866351;26;20397;-75
2024/04/15 19:28:35;;;;;;;3.22;2.80;;;;;;;4.86;100.00;99572.59;10852643;26;20098;-76
2024/04/15 19:33:32;;;;;;;4.25;2.65;;;;;;;4.84;100.00;99581.03;10853627;26;20481;-76
2024/04/15 19:38:33;;;;;;;3.13;2.67;;;;;;;4.88;100.00;99597.47;10832456;26;20013;-76
2024/04/15 19:43:31;;;;;;;4.18;2.47;;;;;;;4.89;100.00;99587.44;10856592;26;20002;-76
2024/04/15 19:48:28;;;;;;;3.83;2.92;;;;;;;4.93;100.00;99577.59;10851862;26;20006;-75
2024/04/15 19:53:26;;;;;;;5.00;2.90;;;;;;;4.88;100.00;99575.81;10852803;26;20023;-77
2024/04/15 19:58:23;;;;;;;3.67;2.78;;;;;;;4.97;100.00;99578.59;10833864;26;20017;-75
2024/04/15 20:03:20;;;;;;;3.42;2.60;;;;;;;5.05;100.00;99575.13;10859362;26;20013;-77
2024/04/15 20:08:17;;;;;;;4.65;2.70;;;;;;;5.02;100.00;99576.53;10854259;26;20457;-74
2024/04/15 20:13:17;;;;;;;3.45;2.75;;;;;;;5.14;100.00;99575.97;10854124;26;20104;-74
2024/04/15 20:18:22;;;;;;;3.33;2.50;;;;;;;5.13;100.00;99571.69;10825733;26;20016;-74
2024/04/15 20:23:19;;;;;;;3.63;2.97;;;;;;;5.08;100.00;99574.50;10852044;26;20001;-74
2024/04/15 20:28:16;;;;;;;4.82;3.45;;;;;;;5.15;100.00;99568.63;10850342;26;20013;-74
2024/04/15 20:33:14;;;;;;;4.05;3.40;;;;;;;5.01;100.00;99558.69;10861301;26;20017;-74
2024/04/15 20:38:11;;;;;;;4.97;3.20;;;;;;;5.09;100.00;99569.91;10825670;26;20009;-74
2024/04/15 20:43:08;;;;;;;3.60;3.05;;;;;;;5.06;100.00;99560.47;10847575;26;20086;-73
2024/04/15 20:48:06;;;;;;;6.22;3.25;;;;;;;5.15;100.00;99553.22;10830025;26;20123;-73
2024/04/15 20:53:04;;;;;;;4.18;3.35;;;;;;;5.16;100.00;99548.56;10852799;26;20009;-73
2024/04/15 20:58:01;;;;;;;3.75;2.90;;;;;;;5.19;100.00;99559.59;10845813;26;20015;-71
2024/04/15 21:03:00;;;;;;;4.43;2.70;;;;;;;5.13;100.00;99555.41;10863535;26;20012;-71
2024/04/15 21:07:57;;;;;;;4.03;2.33;;;;;;;5.06;100.00;99555.06;10856880;26;20005;-71
2024/04/15 21:12:54;;;;;;;6.45;2.88;;;;;;;5.11;100.00;99551.44;10874807;26;20012;-72
2024/04/15 21:17:53;;;;;;;3.20;2.45;;;;;;;5.11;100.00;99548.72;10829506;26;20002;-73
2024/04/15 21:22:51;;;;;;;6.95;3.00;;;;;;;5.12;100.00;99553.81;10852687;26;20000;-73
2024/04/15 21:27:54;;;;;;;9.25;3.47;;;;;;;5.10;100.00;99545.19;10844252;26;20069;-71
2024/04/15 21:32:52;;;;;;;7.97;4.30;;;;;;;5.10;100.00;99561.44;10850781;26;20016;-72
2024/04/15 21:37:49;;;;;;;5.10;2.70;;;;;;;5.14;100.00;99562.44;10841437;26;20013;-72
2024/04/15 21:42:46;;;;;;;5.32;3.42;;;;;;;5.10;100.00;99558.72;10847729;26;20113;-72
2024/04/15 21:47:43;;;;;;;3.53;3.05;;;;;;;4.99;100.00;99552.78;10841205;26;20088;-71
2024/04/15 21:52:40;;;;;;;9.07;3.33;;;;;;;4.99;100.00;99543.84;10842282;26;20001;-73
2024/04/15 21:57:37;;;;;;;5.95;2.80;;;;;;;4.96;100.00;99561.50;10854746;26;20009;-70
2024/04/15 22:02:34;;;;;;;3.38;2.80;;;;;;;4.87;100.00;99562.56;10865995;26;20015;-71
2024/04/15 22:07:32;;;;;;;4.22;2.80;;;;;;;4.86;100.00;99567.19;10845851;26;20015;-71
2024/04/15 22:12:29;;;;;;;6.97;3.10;;;;;;;4.91;100.00;99558.13;10849634;26;20741;-72
2024/04/15 22:17:32;;;;;;;3.90;3.28;;;;;;;4.93;100.00;99553.22;10854367;26;20452;-72
2024/04/15 22:22:30;;;;;;;5.03;3.40;;;;;;;4.82;100.00;99558.84;10855208;26;20009;-72
2024/04/15 22:27:28;;;;;;;5.22;2.88;;;;;;;4.82;100.00;99556.16;10856883;26;20009;-70
2024/04/15 22:32:25;;;;;;;6.15;2.88;;;;;;;4.84;100.00;99559.34;10860563;26;20013;-70
2024/04/15 22:37:22;;;;;;;3.88;2.70;;;;;;;4.74;100.00;99586.69;10850652;26;20052;-69
2024/04/15 22:42:19;;;;;;;5.50;2.58;;;;;;;4.76;100.00;99587.19;10820339;26;20708;-70